CheckWX is a tool to help pilots better visualize weather data.  It is not intended as a substitute for an official pre-flight weather briefing.

20:35:09 UTC

KBNW METAR
Boone Municipal Airport
Boone, Iowa, USA
Current

20 mins ago

KBNW 262015Z AUTO VRB05KT 10SM CLR 28/22 A3002 RMK AO2
Observed
Jun-26 @ 20:15 UTC
Wind
  • Variable at 5 KTS
Visibility
10 SM
Flight Rules
VFR
Cloud Levels
  • Clear skies
Temperature
28°C / 82°F
Dewpoint
22°C / 72°F
Heat Index
30°C / 86°F
Humidity
70%
Altimeter
30.02" Hg
Pressure
1016.62 hPa
Previous

40 mins ago

KBNW 261955Z AUTO 11006KT 10SM CLR 27/21 A3001 RMK AO2
Observed
Jun-26 @ 19:55 UTC
Wind
  • 110° at 6 KTS
Visibility
10 SM
Flight Rules
VFR
Cloud Levels
  • Clear skies
Temperature
27°C / 81°F
Dewpoint
21°C / 70°F
Heat Index
29°C / 85°F
Humidity
70%
Altimeter
30.01" Hg
Pressure
1016.22 hPa
Previous

60 mins ago

KBNW 261935Z AUTO 12006KT 10SM CLR 27/22 A3001 RMK AO2
Observed
Jun-26 @ 19:35 UTC
Wind
  • 120° at 6 KTS
Visibility
10 SM
Flight Rules
VFR
Cloud Levels
  • Clear skies
Temperature
27°C / 81°F
Dewpoint
22°C / 72°F
Heat Index
29°C / 85°F
Humidity
74%
Altimeter
30.01" Hg
Pressure
1016.22 hPa